sensor_id;sensor_type;location;lat;lon;timestamp;P1;durP1;ratioP1;P2;durP2;ratioP2
44446;SDS011;30152;52.066;5.358;2023-08-21T06:33:09;7.85;;;1.80;;
44446;SDS011;30152;52.066;5.358;2023-08-21T06:35:36;8.88;;;2.00;;
44446;SDS011;30152;52.066;5.358;2023-08-21T06:38:02;4.30;;;1.10;;
44446;SDS011;30152;52.066;5.358;2023-08-21T06:40:28;7.65;;;1.85;;
44446;SDS011;30152;52.066;5.358;2023-08-21T06:42:54;7.38;;;1.58;;
44446;SDS011;30152;52.066;5.358;2023-08-21T06:45:20;8.02;;;1.50;;
44446;SDS011;30152;52.066;5.358;2023-08-21T06:47:46;10.00;;;1.75;;
44446;SDS011;30152;52.066;5.358;2023-08-21T06:50:12;8.35;;;1.58;;
44446;SDS011;30152;52.066;5.358;2023-08-21T06:52:38;6.75;;;1.48;;
44446;SDS011;30152;52.066;5.358;2023-08-21T06:55:04;8.32;;;1.55;;
44446;SDS011;30152;52.066;5.358;2023-08-21T06:57:30;9.18;;;1.42;;
44446;SDS011;30152;52.066;5.358;2023-08-21T06:59:56;4.97;;;1.50;;
44446;SDS011;30152;52.066;5.358;2023-08-21T07:02:22;7.07;;;1.63;;
44446;SDS011;30152;52.066;5.358;2023-08-21T07:04:47;8.38;;;1.52;;
44446;SDS011;30152;52.066;5.358;2023-08-21T07:07:13;8.25;;;1.88;;
44446;SDS011;30152;52.066;5.358;2023-08-21T07:09:39;6.95;;;1.38;;
44446;SDS011;30152;52.066;5.358;2023-08-21T07:12:05;8.25;;;1.40;;
44446;SDS011;30152;52.066;5.358;2023-08-21T07:14:31;9.30;;;1.30;;
44446;SDS011;30152;52.066;5.358;2023-08-21T07:16:57;5.50;;;1.30;;
44446;SDS011;30152;52.066;5.358;2023-08-21T07:19:23;7.18;;;1.23;;
44446;SDS011;30152;52.066;5.358;2023-08-21T07:21:49;10.13;;;1.30;;
44446;SDS011;30152;52.066;5.358;2023-08-21T07:24:15;7.57;;;1.35;;
44446;SDS011;30152;52.066;5.358;2023-08-21T07:26:41;8.35;;;1.40;;
44446;SDS011;30152;52.066;5.358;2023-08-21T07:29:06;7.13;;;1.33;;
44446;SDS011;30152;52.066;5.358;2023-08-21T07:31:32;9.35;;;1.23;;
44446;SDS011;30152;52.066;5.358;2023-08-21T07:33:58;11.38;;;1.23;;
44446;SDS011;30152;52.066;5.358;2023-08-21T07:36:24;8.15;;;1.50;;
44446;SDS011;30152;52.066;5.358;2023-08-21T07:38:50;6.45;;;1.10;;
44446;SDS011;30152;52.066;5.358;2023-08-21T07:41:16;8.10;;;1.70;;
44446;SDS011;30152;52.066;5.358;2023-08-21T07:43:42;8.63;;;1.92;;
44446;SDS011;30152;52.066;5.358;2023-08-21T07:46:10;6.75;;;1.33;;
44446;SDS011;30152;52.066;5.358;2023-08-21T07:48:45;6.97;;;1.75;;
44446;SDS011;30152;52.066;5.358;2023-08-21T07:51:11;7.03;;;1.40;;
44446;SDS011;30152;52.066;5.358;2023-08-21T07:53:38;6.15;;;1.30;;
44446;SDS011;30152;52.066;5.358;2023-08-21T07:56:03;10.90;;;2.05;;
44446;SDS011;30152;52.066;5.358;2023-08-21T07:58:30;10.20;;;1.58;;
44446;SDS011;30152;52.066;5.358;2023-08-21T08:00:56;8.77;;;1.40;;
44446;SDS011;30152;52.066;5.358;2023-08-21T08:03:22;9.15;;;1.73;;
44446;SDS011;30152;52.066;5.358;2023-08-21T08:05:48;9.70;;;1.85;;
44446;SDS011;30152;52.066;5.358;2023-08-21T08:08:13;9.73;;;1.70;;
44446;SDS011;30152;52.066;5.358;2023-08-21T08:10:39;9.98;;;1.38;;
44446;SDS011;30152;52.066;5.358;2023-08-21T08:13:06;9.70;;;1.40;;
44446;SDS011;30152;52.066;5.358;2023-08-21T08:15:32;7.65;;;1.20;;
44446;SDS011;30152;52.066;5.358;2023-08-21T08:17:59;10.55;;;1.48;;
44446;SDS011;30152;52.066;5.358;2023-08-21T08:20:25;7.80;;;1.08;;
44446;SDS011;30152;52.066;5.358;2023-08-21T08:22:51;6.38;;;1.50;;
44446;SDS011;30152;52.066;5.358;2023-08-21T08:25:17;5.20;;;1.10;;
44446;SDS011;30152;52.066;5.358;2023-08-21T08:27:44;8.80;;;1.30;;
44446;SDS011;30152;52.066;5.358;2023-08-21T08:30:09;5.03;;;1.08;;
44446;SDS011;30152;52.066;5.358;2023-08-21T08:32:35;10.13;;;1.30;;
44446;SDS011;30152;52.066;5.358;2023-08-21T08:35:01;7.88;;;1.17;;
44446;SDS011;30152;52.066;5.358;2023-08-21T08:37:27;6.50;;;1.00;;
44446;SDS011;30152;52.066;5.358;2023-08-21T08:39:52;9.25;;;1.38;;
44446;SDS011;30152;52.066;5.358;2023-08-21T08:42:18;6.55;;;1.38;;
44446;SDS011;30152;52.066;5.358;2023-08-21T08:44:44;7.28;;;1.10;;
44446;SDS011;30152;52.066;5.358;2023-08-21T08:47:10;11.30;;;1.40;;
44446;SDS011;30152;52.066;5.358;2023-08-21T08:49:39;8.50;;;1.38;;
44446;SDS011;30152;52.066;5.358;2023-08-21T08:52:05;9.30;;;1.20;;
44446;SDS011;30152;52.066;5.358;2023-08-21T08:54:31;8.52;;;1.50;;
44446;SDS011;30152;52.066;5.358;2023-08-21T08:56:57;5.45;;;1.10;;
44446;SDS011;30152;52.066;5.358;2023-08-21T08:59:22;8.48;;;1.02;;
44446;SDS011;30152;52.066;5.358;2023-08-21T09:01:48;9.02;;;1.42;;
44446;SDS011;30152;52.066;5.358;2023-08-21T09:04:14;7.40;;;0.85;;
44446;SDS011;30152;52.066;5.358;2023-08-21T09:06:40;4.20;;;0.90;;
44446;SDS011;30152;52.066;5.358;2023-08-21T09:09:07;5.13;;;0.88;;
44446;SDS011;30152;52.066;5.358;2023-08-21T09:11:33;6.38;;;0.93;;
44446;SDS011;30152;52.066;5.358;2023-08-21T09:13:59;8.02;;;1.10;;
44446;SDS011;30152;52.066;5.358;2023-08-21T09:16:25;9.55;;;1.00;;
44446;SDS011;30152;52.066;5.358;2023-08-21T09:18:52;7.28;;;1.48;;
44446;SDS011;30152;52.066;5.358;2023-08-21T09:21:19;11.73;;;1.13;;
44446;SDS011;30152;52.066;5.358;2023-08-21T09:23:46;6.38;;;1.20;;
44446;SDS011;30152;52.066;5.358;2023-08-21T09:26:22;7.75;;;1.40;;
44446;SDS011;30152;52.066;5.358;2023-08-21T09:28:49;8.50;;;1.60;;
44446;SDS011;30152;52.066;5.358;2023-08-21T09:31:16;6.97;;;1.13;;
44446;SDS011;30152;52.066;5.358;2023-08-21T09:33:55;9.73;;;1.35;;
44446;SDS011;30152;52.066;5.358;2023-08-21T09:36:24;8.88;;;1.60;;
44446;SDS011;30152;52.066;5.358;2023-08-21T09:38:50;6.75;;;1.52;;
44446;SDS011;30152;52.066;5.358;2023-08-21T09:41:19;5.97;;;1.27;;
44446;SDS011;30152;52.066;5.358;2023-08-21T09:43:45;10.27;;;1.67;;
44446;SDS011;30152;52.066;5.358;2023-08-21T09:46:14;11.02;;;2.05;;
44446;SDS011;30152;52.066;5.358;2023-08-21T09:48:46;10.82;;;1.60;;
44446;SDS011;30152;52.066;5.358;2023-08-21T09:51:12;11.05;;;1.67;;
44446;SDS011;30152;52.066;5.358;2023-08-21T09:53:41;10.45;;;2.00;;
44446;SDS011;30152;52.066;5.358;2023-08-21T09:56:07;9.55;;;2.03;;
44446;SDS011;30152;52.066;5.358;2023-08-21T09:58:35;8.32;;;1.45;;
44446;SDS011;30152;52.066;5.358;2023-08-21T10:01:01;6.68;;;1.80;;
44446;SDS011;30152;52.066;5.358;2023-08-21T10:03:36;11.27;;;2.08;;
44446;SDS011;30152;52.066;5.358;2023-08-21T10:06:04;11.52;;;1.70;;
44446;SDS011;30152;52.066;5.358;2023-08-21T10:08:31;8.38;;;1.50;;
44446;SDS011;30152;52.066;5.358;2023-08-21T10:11:01;9.93;;;1.77;;
44446;SDS011;30152;52.066;5.358;2023-08-21T10:13:30;7.97;;;1.83;;
44446;SDS011;30152;52.066;5.358;2023-08-21T10:15:57;7.15;;;1.20;;
44446;SDS011;30152;52.066;5.358;2023-08-21T10:18:23;10.98;;;1.33;;
44446;SDS011;30152;52.066;5.358;2023-08-21T10:20:55;5.80;;;1.45;;
44446;SDS011;30152;52.066;5.358;2023-08-21T10:23:30;6.97;;;1.60;;
44446;SDS011;30152;52.066;5.358;2023-08-21T10:26:00;8.38;;;1.50;;
44446;SDS011;30152;52.066;5.358;2023-08-21T10:28:49;6.30;;;1.20;;
44446;SDS011;30152;52.066;5.358;2023-08-21T10:33:53;5.43;;;1.10;;
44446;SDS011;30152;52.066;5.358;2023-08-21T10:44:34;6.75;;;2.15;;
44446;SDS011;30152;52.066;5.358;2023-08-21T10:47:15;6.78;;;1.52;;
44446;SDS011;30152;52.066;5.358;2023-08-21T10:49:46;9.05;;;1.23;;
44446;SDS011;30152;52.066;5.358;2023-08-21T10:52:12;7.28;;;1.73;;
44446;SDS011;30152;52.066;5.358;2023-08-21T10:54:45;6.80;;;1.67;;
44446;SDS011;30152;52.066;5.358;2023-08-21T10:57:15;6.18;;;1.50;;
44446;SDS011;30152;52.066;5.358;2023-08-21T10:59:57;9.45;;;2.13;;
44446;SDS011;30152;52.066;5.358;2023-08-21T11:02:25;6.93;;;1.47;;
44446;SDS011;30152;52.066;5.358;2023-08-21T11:04:53;4.95;;;1.02;;
44446;SDS011;30152;52.066;5.358;2023-08-21T11:07:19;8.38;;;1.50;;
44446;SDS011;30152;52.066;5.358;2023-08-21T11:09:46;8.32;;;1.50;;
44446;SDS011;30152;52.066;5.358;2023-08-21T11:12:14;4.70;;;1.00;;
44446;SDS011;30152;52.066;5.358;2023-08-21T11:14:42;4.72;;;0.93;;
44446;SDS011;30152;52.066;5.358;2023-08-21T11:17:08;7.70;;;1.33;;
44446;SDS011;30152;52.066;5.358;2023-08-21T11:19:34;5.05;;;1.05;;
44446;SDS011;30152;52.066;5.358;2023-08-21T11:22:01;8.20;;;1.20;;
44446;SDS011;30152;52.066;5.358;2023-08-21T11:24:30;8.02;;;1.40;;
44446;SDS011;30152;52.066;5.358;2023-08-21T11:27:02;6.70;;;1.42;;
44446;SDS011;30152;52.066;5.358;2023-08-21T11:29:37;6.45;;;1.05;;
44446;SDS011;30152;52.066;5.358;2023-08-21T11:32:08;7.28;;;1.48;;
44446;SDS011;30152;52.066;5.358;2023-08-21T11:34:34;6.30;;;1.42;;
44446;SDS011;30152;52.066;5.358;2023-08-21T11:37:00;4.20;;;1.00;;
44446;SDS011;30152;52.066;5.358;2023-08-21T11:39:26;7.72;;;1.33;;
44446;SDS011;30152;52.066;5.358;2023-08-21T11:41:58;6.70;;;1.20;;
44446;SDS011;30152;52.066;5.358;2023-08-21T11:44:24;6.72;;;0.80;;
44446;SDS011;30152;52.066;5.358;2023-08-21T11:46:52;6.93;;;1.00;;
44446;SDS011;30152;52.066;5.358;2023-08-21T11:49:18;5.75;;;1.00;;
44446;SDS011;30152;52.066;5.358;2023-08-21T11:51:47;3.95;;;0.80;;
44446;SDS011;30152;52.066;5.358;2023-08-21T11:54:12;3.67;;;0.80;;
44446;SDS011;30152;52.066;5.358;2023-08-21T11:56:38;4.43;;;0.65;;
44446;SDS011;30152;52.066;5.358;2023-08-21T11:59:04;3.85;;;0.70;;
44446;SDS011;30152;52.066;5.358;2023-08-21T12:01:32;6.00;;;0.70;;
44446;SDS011;30152;52.066;5.358;2023-08-21T12:03:59;3.08;;;0.60;;
44446;SDS011;30152;52.066;5.358;2023-08-21T12:06:24;4.40;;;0.80;;
44446;SDS011;30152;52.066;5.358;2023-08-21T12:08:52;3.28;;;0.73;;
44446;SDS011;30152;52.066;5.358;2023-08-21T12:11:17;5.40;;;1.10;;
44446;SDS011;30152;52.066;5.358;2023-08-21T12:13:43;6.25;;;0.95;;
44446;SDS011;30152;52.066;5.358;2023-08-21T12:16:08;3.67;;;0.70;;
44446;SDS011;30152;52.066;5.358;2023-08-21T12:18:34;4.40;;;0.68;;
44446;SDS011;30152;52.066;5.358;2023-08-21T12:21:00;5.32;;;1.17;;
44446;SDS011;30152;52.066;5.358;2023-08-21T12:23:25;5.13;;;0.90;;
44446;SDS011;30152;52.066;5.358;2023-08-21T12:25:51;5.05;;;1.00;;
44446;SDS011;30152;52.066;5.358;2023-08-21T12:28:17;4.60;;;0.93;;
44446;SDS011;30152;52.066;5.358;2023-08-21T12:30:42;7.97;;;1.05;;
44446;SDS011;30152;52.066;5.358;2023-08-21T12:33:08;6.03;;;0.85;;
44446;SDS011;30152;52.066;5.358;2023-08-21T12:35:34;4.35;;;0.80;;
44446;SDS011;30152;52.066;5.358;2023-08-21T12:38:00;6.20;;;1.08;;
44446;SDS011;30152;52.066;5.358;2023-08-21T12:40:30;6.10;;;0.90;;
44446;SDS011;30152;52.066;5.358;2023-08-21T12:42:56;4.35;;;1.20;;
44446;SDS011;30152;52.066;5.358;2023-08-21T12:45:22;4.90;;;1.20;;
44446;SDS011;30152;52.066;5.358;2023-08-21T12:47:47;5.47;;;1.30;;
44446;SDS011;30152;52.066;5.358;2023-08-21T12:50:13;7.05;;;1.10;;
44446;SDS011;30152;52.066;5.358;2023-08-21T12:52:38;8.88;;;1.20;;
44446;SDS011;30152;52.066;5.358;2023-08-21T12:55:06;6.30;;;1.35;;
44446;SDS011;30152;52.066;5.358;2023-08-21T12:57:32;8.35;;;1.38;;
44446;SDS011;30152;52.066;5.358;2023-08-21T12:59:58;5.03;;;1.17;;
44446;SDS011;30152;52.066;5.358;2023-08-21T13:02:23;5.60;;;1.10;;
44446;SDS011;30152;52.066;5.358;2023-08-21T13:04:49;4.97;;;1.23;;
44446;SDS011;30152;52.066;5.358;2023-08-21T13:07:15;7.38;;;1.40;;
44446;SDS011;30152;52.066;5.358;2023-08-21T13:09:40;3.15;;;1.05;;
44446;SDS011;30152;52.066;5.358;2023-08-21T13:12:06;6.72;;;1.52;;
44446;SDS011;30152;52.066;5.358;2023-08-21T13:14:33;3.55;;;1.10;;
44446;SDS011;30152;52.066;5.358;2023-08-21T13:16:59;6.03;;;1.20;;
44446;SDS011;30152;52.066;5.358;2023-08-21T13:19:24;6.85;;;1.50;;
44446;SDS011;30152;52.066;5.358;2023-08-21T13:21:50;6.78;;;1.65;;
44446;SDS011;30152;52.066;5.358;2023-08-21T13:24:16;5.43;;;1.58;;
44446;SDS011;30152;52.066;5.358;2023-08-21T13:26:42;5.78;;;1.42;;
44446;SDS011;30152;52.066;5.358;2023-08-21T13:29:08;6.80;;;1.60;;
44446;SDS011;30152;52.066;5.358;2023-08-21T13:31:34;7.93;;;2.95;;
44446;SDS011;30152;52.066;5.358;2023-08-21T13:33:59;4.82;;;1.30;;
44446;SDS011;30152;52.066;5.358;2023-08-21T13:36:25;8.90;;;1.60;;
44446;SDS011;30152;52.066;5.358;2023-08-21T13:38:51;5.60;;;1.20;;
44446;SDS011;30152;52.066;5.358;2023-08-21T13:41:16;6.07;;;1.58;;
44446;SDS011;30152;52.066;5.358;2023-08-21T13:43:42;4.15;;;1.00;;
44446;SDS011;30152;52.066;5.358;2023-08-21T13:46:08;6.22;;;1.30;;
44446;SDS011;30152;52.066;5.358;2023-08-21T13:48:34;8.77;;;1.27;;
44446;SDS011;30152;52.066;5.358;2023-08-21T13:51:00;6.15;;;1.40;;
44446;SDS011;30152;52.066;5.358;2023-08-21T13:53:26;7.63;;;1.65;;
44446;SDS011;30152;52.066;5.358;2023-08-21T13:55:52;6.13;;;1.10;;
44446;SDS011;30152;52.066;5.358;2023-08-21T13:58:18;4.03;;;1.05;;
44446;SDS011;30152;52.066;5.358;2023-08-21T14:00:44;3.88;;;1.00;;
44446;SDS011;30152;52.066;5.358;2023-08-21T14:03:09;5.88;;;1.10;;
44446;SDS011;30152;52.066;5.358;2023-08-21T14:05:35;4.70;;;1.08;;
44446;SDS011;30152;52.066;5.358;2023-08-21T14:08:01;5.93;;;1.15;;
44446;SDS011;30152;52.066;5.358;2023-08-21T14:10:27;5.95;;;1.30;;
44446;SDS011;30152;52.066;5.358;2023-08-21T14:12:52;10.18;;;1.73;;
44446;SDS011;30152;52.066;5.358;2023-08-21T14:15:18;7.03;;;1.35;;
44446;SDS011;30152;52.066;5.358;2023-08-21T14:17:44;5.05;;;1.30;;
44446;SDS011;30152;52.066;5.358;2023-08-21T14:20:10;6.95;;;1.67;;
44446;SDS011;30152;52.066;5.358;2023-08-21T14:22:36;6.45;;;1.38;;
44446;SDS011;30152;52.066;5.358;2023-08-21T14:25:02;5.63;;;1.27;;
44446;SDS011;30152;52.066;5.358;2023-08-21T14:27:31;7.45;;;1.67;;
44446;SDS011;30152;52.066;5.358;2023-08-21T14:29:58;7.35;;;1.13;;
44446;SDS011;30152;52.066;5.358;2023-08-21T14:32:23;4.45;;;0.88;;
44446;SDS011;30152;52.066;5.358;2023-08-21T14:34:49;10.07;;;1.35;;
44446;SDS011;30152;52.066;5.358;2023-08-21T14:37:14;7.25;;;1.42;;
44446;SDS011;30152;52.066;5.358;2023-08-21T14:39:43;5.57;;;1.00;;
44446;SDS011;30152;52.066;5.358;2023-08-21T14:42:09;5.65;;;1.10;;
44446;SDS011;30152;52.066;5.358;2023-08-21T14:44:35;3.67;;;0.80;;
44446;SDS011;30152;52.066;5.358;2023-08-21T14:47:00;6.72;;;1.17;;
44446;SDS011;30152;52.066;5.358;2023-08-21T14:49:26;4.60;;;0.75;;
44446;SDS011;30152;52.066;5.358;2023-08-21T14:51:51;4.80;;;0.80;;
44446;SDS011;30152;52.066;5.358;2023-08-21T14:54:17;6.55;;;0.80;;
44446;SDS011;30152;52.066;5.358;2023-08-21T14:56:43;4.57;;;0.88;;
44446;SDS011;30152;52.066;5.358;2023-08-21T14:59:08;3.30;;;0.70;;
44446;SDS011;30152;52.066;5.358;2023-08-21T15:01:39;5.45;;;0.75;;
44446;SDS011;30152;52.066;5.358;2023-08-21T15:04:08;4.00;;;0.75;;
44446;SDS011;30152;52.066;5.358;2023-08-21T15:06:34;5.22;;;0.80;;
44446;SDS011;30152;52.066;5.358;2023-08-21T15:09:00;6.97;;;1.00;;
44446;SDS011;30152;52.066;5.358;2023-08-21T15:11:26;5.72;;;0.88;;
44446;SDS011;30152;52.066;5.358;2023-08-21T15:13:52;5.32;;;1.13;;
44446;SDS011;30152;52.066;5.358;2023-08-21T15:16:18;3.40;;;0.70;;
44446;SDS011;30152;52.066;5.358;2023-08-21T15:18:43;2.92;;;0.55;;
44446;SDS011;30152;52.066;5.358;2023-08-21T15:21:11;2.75;;;0.50;;
44446;SDS011;30152;52.066;5.358;2023-08-21T15:23:36;5.55;;;0.80;;
44446;SDS011;30152;52.066;5.358;2023-08-21T15:26:02;3.85;;;0.63;;
44446;SDS011;30152;52.066;5.358;2023-08-21T15:28:27;2.78;;;0.60;;
44446;SDS011;30152;52.066;5.358;2023-08-21T15:30:53;4.82;;;0.70;;
44446;SDS011;30152;52.066;5.358;2023-08-21T15:33:18;4.07;;;0.60;;
44446;SDS011;30152;52.066;5.358;2023-08-21T15:35:44;3.70;;;0.60;;
44446;SDS011;30152;52.066;5.358;2023-08-21T15:38:10;2.83;;;0.80;;
44446;SDS011;30152;52.066;5.358;2023-08-21T15:40:35;5.63;;;0.88;;
44446;SDS011;30152;52.066;5.358;2023-08-21T15:43:02;7.95;;;0.93;;
44446;SDS011;30152;52.066;5.358;2023-08-21T15:45:29;6.20;;;0.88;;
44446;SDS011;30152;52.066;5.358;2023-08-21T15:47:55;5.88;;;0.82;;
44446;SDS011;30152;52.066;5.358;2023-08-21T15:50:20;4.55;;;0.80;;
44446;SDS011;30152;52.066;5.358;2023-08-21T15:52:49;6.50;;;1.23;;
44446;SDS011;30152;52.066;5.358;2023-08-21T15:55:15;6.22;;;1.13;;
44446;SDS011;30152;52.066;5.358;2023-08-21T15:57:40;4.45;;;0.80;;
44446;SDS011;30152;52.066;5.358;2023-08-21T16:00:07;4.43;;;0.93;;
44446;SDS011;30152;52.066;5.358;2023-08-21T16:02:36;3.83;;;0.80;;
44446;SDS011;30152;52.066;5.358;2023-08-21T16:05:02;3.47;;;0.90;;
44446;SDS011;30152;52.066;5.358;2023-08-21T16:07:29;2.83;;;0.70;;
44446;SDS011;30152;52.066;5.358;2023-08-21T16:09:55;4.78;;;0.80;;
44446;SDS011;30152;52.066;5.358;2023-08-21T16:12:21;3.58;;;0.82;;
44446;SDS011;30152;52.066;5.358;2023-08-21T16:14:47;4.78;;;0.90;;
44446;SDS011;30152;52.066;5.358;2023-08-21T16:17:12;5.32;;;1.17;;
44446;SDS011;30152;52.066;5.358;2023-08-21T16:19:38;3.83;;;1.13;;
44446;SDS011;30152;52.066;5.358;2023-08-21T16:22:04;5.95;;;0.90;;
44446;SDS011;30152;52.066;5.358;2023-08-21T16:24:29;5.40;;;0.88;;
44446;SDS011;30152;52.066;5.358;2023-08-21T16:26:55;5.20;;;1.13;;
44446;SDS011;30152;52.066;5.358;2023-08-21T16:29:21;5.57;;;1.00;;
44446;SDS011;30152;52.066;5.358;2023-08-21T16:31:48;4.00;;;1.00;;
44446;SDS011;30152;52.066;5.358;2023-08-21T16:34:15;5.93;;;1.30;;
44446;SDS011;30152;52.066;5.358;2023-08-21T16:36:40;7.18;;;1.00;;
44446;SDS011;30152;52.066;5.358;2023-08-21T16:39:07;7.55;;;1.20;;
44446;SDS011;30152;52.066;5.358;2023-08-21T16:41:33;4.63;;;0.88;;
44446;SDS011;30152;52.066;5.358;2023-08-21T16:43:59;8.50;;;1.60;;
44446;SDS011;30152;52.066;5.358;2023-08-21T16:46:24;5.10;;;1.20;;
44446;SDS011;30152;52.066;5.358;2023-08-21T16:48:50;5.45;;;0.98;;
44446;SDS011;30152;52.066;5.358;2023-08-21T16:51:16;4.13;;;1.10;;
44446;SDS011;30152;52.066;5.358;2023-08-21T16:53:41;3.92;;;0.95;;
44446;SDS011;30152;52.066;5.358;2023-08-21T16:56:07;6.45;;;1.23;;
44446;SDS011;30152;52.066;5.358;2023-08-21T16:58:33;5.90;;;1.30;;
44446;SDS011;30152;52.066;5.358;2023-08-21T17:00:59;3.90;;;1.33;;
44446;SDS011;30152;52.066;5.358;2023-08-21T17:03:25;5.70;;;1.05;;
44446;SDS011;30152;52.066;5.358;2023-08-21T17:05:51;5.68;;;0.85;;
44446;SDS011;30152;52.066;5.358;2023-08-21T17:08:18;4.68;;;0.85;;
44446;SDS011;30152;52.066;5.358;2023-08-21T17:10:43;4.63;;;1.00;;
44446;SDS011;30152;52.066;5.358;2023-08-21T17:13:09;5.78;;;1.13;;
44446;SDS011;30152;52.066;5.358;2023-08-21T17:15:34;7.28;;;1.60;;
44446;SDS011;30152;52.066;5.358;2023-08-21T17:18:00;5.70;;;1.25;;
44446;SDS011;30152;52.066;5.358;2023-08-21T17:20:29;5.53;;;1.10;;
44446;SDS011;30152;52.066;5.358;2023-08-21T17:22:55;4.57;;;1.30;;
44446;SDS011;30152;52.066;5.358;2023-08-21T17:25:21;5.55;;;1.00;;
44446;SDS011;30152;52.066;5.358;2023-08-21T17:27:47;6.50;;;1.17;;
44446;SDS011;30152;52.066;5.358;2023-08-21T17:30:14;5.43;;;1.33;;
44446;SDS011;30152;52.066;5.358;2023-08-21T17:32:39;6.63;;;1.30;;
44446;SDS011;30152;52.066;5.358;2023-08-21T17:35:05;6.68;;;1.35;;
44446;SDS011;30152;52.066;5.358;2023-08-21T17:37:32;5.22;;;1.15;;
44446;SDS011;30152;52.066;5.358;2023-08-21T17:39:57;5.72;;;1.40;;
44446;SDS011;30152;52.066;5.358;2023-08-21T17:42:25;7.40;;;1.38;;
44446;SDS011;30152;52.066;5.358;2023-08-21T17:44:51;4.40;;;1.42;;
44446;SDS011;30152;52.066;5.358;2023-08-21T17:47:16;5.68;;;1.38;;
44446;SDS011;30152;52.066;5.358;2023-08-21T17:49:42;8.65;;;2.25;;
44446;SDS011;30152;52.066;5.358;2023-08-21T17:52:08;4.63;;;1.10;;
44446;SDS011;30152;52.066;5.358;2023-08-21T17:54:34;4.00;;;1.00;;
44446;SDS011;30152;52.066;5.358;2023-08-21T17:56:59;7.18;;;1.60;;
44446;SDS011;30152;52.066;5.358;2023-08-21T17:59:25;6.40;;;1.30;;
44446;SDS011;30152;52.066;5.358;2023-08-21T18:01:51;5.57;;;1.10;;
44446;SDS011;30152;52.066;5.358;2023-08-21T18:04:19;6.35;;;1.15;;
44446;SDS011;30152;52.066;5.358;2023-08-21T18:06:45;6.25;;;1.23;;
44446;SDS011;30152;52.066;5.358;2023-08-21T18:09:11;7.50;;;1.38;;
44446;SDS011;30152;52.066;5.358;2023-08-21T18:11:37;5.97;;;1.23;;
44446;SDS011;30152;52.066;5.358;2023-08-21T18:14:03;5.88;;;1.23;;
44446;SDS011;30152;52.066;5.358;2023-08-21T18:16:28;7.55;;;1.42;;
44446;SDS011;30152;52.066;5.358;2023-08-21T18:18:54;5.72;;;1.25;;
44446;SDS011;30152;52.066;5.358;2023-08-21T18:21:20;6.57;;;1.23;;
44446;SDS011;30152;52.066;5.358;2023-08-21T18:23:46;4.47;;;1.30;;
44446;SDS011;30152;52.066;5.358;2023-08-21T18:26:12;4.85;;;1.27;;
44446;SDS011;30152;52.066;5.358;2023-08-21T18:28:38;4.82;;;1.15;;
44446;SDS011;30152;52.066;5.358;2023-08-21T18:31:04;4.78;;;1.40;;
44446;SDS011;30152;52.066;5.358;2023-08-21T18:33:30;7.57;;;1.40;;
44446;SDS011;30152;52.066;5.358;2023-08-21T18:35:57;6.05;;;1.25;;
44446;SDS011;30152;52.066;5.358;2023-08-21T18:38:23;3.83;;;1.23;;
44446;SDS011;30152;52.066;5.358;2023-08-21T18:40:49;4.40;;;1.20;;
44446;SDS011;30152;52.066;5.358;2023-08-21T18:43:17;5.32;;;1.13;;
44446;SDS011;30152;52.066;5.358;2023-08-21T18:45:43;4.93;;;1.30;;
44446;SDS011;30152;52.066;5.358;2023-08-21T18:48:09;4.72;;;1.63;;
44446;SDS011;30152;52.066;5.358;2023-08-21T18:53:02;7.35;;;1.25;;
44446;SDS011;30152;52.066;5.358;2023-08-21T18:55:28;6.40;;;1.40;;
44446;SDS011;30152;52.066;5.358;2023-08-21T18:57:55;6.93;;;1.20;;
44446;SDS011;30152;52.066;5.358;2023-08-21T19:00:21;4.93;;;1.25;;
44446;SDS011;30152;52.066;5.358;2023-08-21T19:02:47;4.53;;;1.30;;
44446;SDS011;30152;52.066;5.358;2023-08-21T19:05:12;4.45;;;1.50;;
44446;SDS011;30152;52.066;5.358;2023-08-21T19:07:39;7.75;;;1.60;;
44446;SDS011;30152;52.066;5.358;2023-08-21T19:10:05;6.85;;;1.73;;
44446;SDS011;30152;52.066;5.358;2023-08-21T19:12:32;8.75;;;1.80;;
44446;SDS011;30152;52.066;5.358;2023-08-21T19:14:58;6.13;;;1.80;;
44446;SDS011;30152;52.066;5.358;2023-08-21T19:17:24;6.13;;;1.58;;
44446;SDS011;30152;52.066;5.358;2023-08-21T19:19:53;6.25;;;1.63;;
44446;SDS011;30152;52.066;5.358;2023-08-21T19:22:19;4.93;;;1.80;;
44446;SDS011;30152;52.066;5.358;2023-08-21T19:24:49;6.97;;;1.88;;
44446;SDS011;30152;52.066;5.358;2023-08-21T19:27:17;8.10;;;1.63;;
44446;SDS011;30152;52.066;5.358;2023-08-21T19:29:44;6.72;;;1.85;;
44446;SDS011;30152;52.066;5.358;2023-08-21T19:32:10;6.45;;;1.70;;
44446;SDS011;30152;52.066;5.358;2023-08-21T19:34:36;5.68;;;1.55;;
44446;SDS011;30152;52.066;5.358;2023-08-21T19:37:02;5.43;;;1.50;;
44446;SDS011;30152;52.066;5.358;2023-08-21T19:39:29;7.97;;;2.00;;
44446;SDS011;30152;52.066;5.358;2023-08-21T19:41:55;6.68;;;1.70;;
44446;SDS011;30152;52.066;5.358;2023-08-21T19:44:21;5.60;;;1.55;;
44446;SDS011;30152;52.066;5.358;2023-08-21T19:46:47;10.10;;;1.70;;
44446;SDS011;30152;52.066;5.358;2023-08-21T19:49:13;5.68;;;1.88;;
44446;SDS011;30152;52.066;5.358;2023-08-21T19:51:42;7.25;;;2.35;;
44446;SDS011;30152;52.066;5.358;2023-08-21T19:54:08;9.82;;;1.73;;
44446;SDS011;30152;52.066;5.358;2023-08-21T19:56:34;8.88;;;1.70;;
44446;SDS011;30152;52.066;5.358;2023-08-21T19:59:00;5.20;;;1.58;;
44446;SDS011;30152;52.066;5.358;2023-08-21T20:01:26;6.80;;;1.73;;
44446;SDS011;30152;52.066;5.358;2023-08-21T20:03:52;5.93;;;1.63;;
44446;SDS011;30152;52.066;5.358;2023-08-21T20:06:18;7.00;;;1.50;;
44446;SDS011;30152;52.066;5.358;2023-08-21T20:08:44;7.85;;;1.63;;
44446;SDS011;30152;52.066;5.358;2023-08-21T20:11:10;9.95;;;2.20;;
44446;SDS011;30152;52.066;5.358;2023-08-21T20:13:36;5.95;;;2.13;;
44446;SDS011;30152;52.066;5.358;2023-08-21T20:16:01;6.63;;;1.70;;
44446;SDS011;30152;52.066;5.358;2023-08-21T20:18:31;8.45;;;2.20;;
44446;SDS011;30152;52.066;5.358;2023-08-21T20:20:57;7.03;;;2.05;;
44446;SDS011;30152;52.066;5.358;2023-08-21T20:23:23;5.00;;;1.67;;
44446;SDS011;30152;52.066;5.358;2023-08-21T20:25:49;6.80;;;2.05;;
44446;SDS011;30152;52.066;5.358;2023-08-21T20:28:15;6.55;;;1.95;;
44446;SDS011;30152;52.066;5.358;2023-08-21T20:30:43;4.93;;;1.95;;
44446;SDS011;30152;52.066;5.358;2023-08-21T20:33:08;6.65;;;1.60;;
44446;SDS011;30152;52.066;5.358;2023-08-21T20:35:34;8.63;;;1.75;;
44446;SDS011;30152;52.066;5.358;2023-08-21T20:38:00;6.32;;;1.73;;
44446;SDS011;30152;52.066;5.358;2023-08-21T20:40:26;6.00;;;1.88;;
44446;SDS011;30152;52.066;5.358;2023-08-21T20:42:52;13.57;;;2.25;;
44446;SDS011;30152;52.066;5.358;2023-08-21T20:45:18;7.82;;;1.70;;
44446;SDS011;30152;52.066;5.358;2023-08-21T20:47:44;4.55;;;1.58;;
44446;SDS011;30152;52.066;5.358;2023-08-21T20:50:10;4.35;;;1.70;;
44446;SDS011;30152;52.066;5.358;2023-08-21T20:52:36;4.05;;;1.38;;
44446;SDS011;30152;52.066;5.358;2023-08-21T20:55:02;7.45;;;2.00;;
44446;SDS011;30152;52.066;5.358;2023-08-21T20:57:28;11.30;;;1.95;;
44446;SDS011;30152;52.066;5.358;2023-08-21T20:59:54;5.15;;;1.73;;
44446;SDS011;30152;52.066;5.358;2023-08-21T21:02:20;7.43;;;2.72;;
44446;SDS011;30152;52.066;5.358;2023-08-21T21:04:50;6.03;;;1.70;;
44446;SDS011;30152;52.066;5.358;2023-08-21T21:07:17;7.60;;;2.00;;
44446;SDS011;30152;52.066;5.358;2023-08-21T21:09:43;4.97;;;1.70;;
44446;SDS011;30152;52.066;5.358;2023-08-21T21:12:09;6.30;;;2.25;;
44446;SDS011;30152;52.066;5.358;2023-08-21T21:14:34;8.88;;;2.00;;
44446;SDS011;30152;52.066;5.358;2023-08-21T21:17:00;6.65;;;3.33;;
44446;SDS011;30152;52.066;5.358;2023-08-21T21:19:26;6.70;;;2.03;;
44446;SDS011;30152;52.066;5.358;2023-08-21T21:21:51;8.35;;;2.10;;
44446;SDS011;30152;52.066;5.358;2023-08-21T21:24:18;4.32;;;1.55;;
44446;SDS011;30152;52.066;5.358;2023-08-21T21:26:43;5.90;;;2.00;;
44446;SDS011;30152;52.066;5.358;2023-08-21T21:29:09;4.97;;;1.80;;